sensor_id;sensor_type;location;lat;lon;timestamp;P1;durP1;ratioP1;P2;durP2;ratioP2
79664;SDS011;69132;44.014;20.918;2023-11-19T00:02:21;8.73;;;5.25;;
79664;SDS011;69132;44.014;20.918;2023-11-19T00:04:48;11.73;;;6.68;;
79664;SDS011;69132;44.014;20.918;2023-11-19T00:07:14;7.47;;;4.82;;
79664;SDS011;69132;44.014;20.918;2023-11-19T00:09:42;10.27;;;5.30;;
79664;SDS011;69132;44.014;20.918;2023-11-19T00:12:08;7.25;;;4.50;;
79664;SDS011;69132;44.014;20.918;2023-11-19T00:14:34;10.25;;;4.32;;
79664;SDS011;69132;44.014;20.918;2023-11-19T00:17:00;10.13;;;4.88;;
79664;SDS011;69132;44.014;20.918;2023-11-19T00:19:27;7.28;;;4.00;;
79664;SDS011;69132;44.014;20.918;2023-11-19T00:21:53;6.35;;;4.15;;
79664;SDS011;69132;44.014;20.918;2023-11-19T00:24:19;7.30;;;4.03;;
79664;SDS011;69132;44.014;20.918;2023-11-19T00:26:45;8.35;;;4.75;;
79664;SDS011;69132;44.014;20.918;2023-11-19T00:29:15;6.28;;;4.55;;
79664;SDS011;69132;44.014;20.918;2023-11-19T00:31:44;6.53;;;4.00;;
79664;SDS011;69132;44.014;20.918;2023-11-19T00:34:11;9.25;;;4.43;;
79664;SDS011;69132;44.014;20.918;2023-11-19T00:36:38;8.50;;;5.28;;
79664;SDS011;69132;44.014;20.918;2023-11-19T00:39:04;7.80;;;4.70;;
79664;SDS011;69132;44.014;20.918;2023-11-19T00:41:31;8.10;;;4.47;;
79664;SDS011;69132;44.014;20.918;2023-11-19T00:43:58;6.93;;;4.55;;
79664;SDS011;69132;44.014;20.918;2023-11-19T00:46:24;9.25;;;4.82;;
79664;SDS011;69132;44.014;20.918;2023-11-19T00:48:50;8.18;;;4.15;;
79664;SDS011;69132;44.014;20.918;2023-11-19T00:51:18;7.40;;;5.00;;
79664;SDS011;69132;44.014;20.918;2023-11-19T00:53:44;7.30;;;4.38;;
79664;SDS011;69132;44.014;20.918;2023-11-19T00:56:10;10.85;;;5.03;;
79664;SDS011;69132;44.014;20.918;2023-11-19T00:58:37;7.38;;;3.92;;
79664;SDS011;69132;44.014;20.918;2023-11-19T01:01:05;7.65;;;4.00;;
79664;SDS011;69132;44.014;20.918;2023-11-19T01:03:31;8.57;;;4.55;;
79664;SDS011;69132;44.014;20.918;2023-11-19T01:06:02;11.40;;;4.30;;
79664;SDS011;69132;44.014;20.918;2023-11-19T01:08:33;7.82;;;3.97;;
79664;SDS011;69132;44.014;20.918;2023-11-19T01:11:02;5.60;;;3.78;;
79664;SDS011;69132;44.014;20.918;2023-11-19T01:13:29;6.85;;;4.85;;
79664;SDS011;69132;44.014;20.918;2023-11-19T01:15:55;8.02;;;4.57;;
79664;SDS011;69132;44.014;20.918;2023-11-19T01:18:23;6.15;;;3.85;;
79664;SDS011;69132;44.014;20.918;2023-11-19T01:20:49;7.55;;;4.00;;
79664;SDS011;69132;44.014;20.918;2023-11-19T01:23:16;7.25;;;4.78;;
79664;SDS011;69132;44.014;20.918;2023-11-19T01:25:42;6.38;;;4.38;;
79664;SDS011;69132;44.014;20.918;2023-11-19T01:28:09;4.88;;;3.58;;
79664;SDS011;69132;44.014;20.918;2023-11-19T01:30:35;6.18;;;3.92;;
79664;SDS011;69132;44.014;20.918;2023-11-19T01:33:01;7.63;;;4.55;;
79664;SDS011;69132;44.014;20.918;2023-11-19T01:35:28;6.32;;;3.80;;
79664;SDS011;69132;44.014;20.918;2023-11-19T01:37:55;5.35;;;4.60;;
79664;SDS011;69132;44.014;20.918;2023-11-19T01:40:21;6.47;;;4.30;;
79664;SDS011;69132;44.014;20.918;2023-11-19T01:42:48;5.45;;;4.25;;
79664;SDS011;69132;44.014;20.918;2023-11-19T01:45:21;6.10;;;3.72;;
79664;SDS011;69132;44.014;20.918;2023-11-19T01:47:47;8.05;;;3.88;;
79664;SDS011;69132;44.014;20.918;2023-11-19T01:50:13;9.18;;;4.15;;
79664;SDS011;69132;44.014;20.918;2023-11-19T01:52:41;6.05;;;4.05;;
79664;SDS011;69132;44.014;20.918;2023-11-19T01:55:07;6.50;;;3.85;;
79664;SDS011;69132;44.014;20.918;2023-11-19T01:57:34;8.30;;;4.80;;
79664;SDS011;69132;44.014;20.918;2023-11-19T02:00:02;7.63;;;4.60;;
79664;SDS011;69132;44.014;20.918;2023-11-19T02:02:29;6.45;;;3.78;;
79664;SDS011;69132;44.014;20.918;2023-11-19T02:04:57;5.43;;;3.92;;
79664;SDS011;69132;44.014;20.918;2023-11-19T02:07:23;6.40;;;4.35;;
79664;SDS011;69132;44.014;20.918;2023-11-19T02:09:50;6.72;;;4.28;;
79664;SDS011;69132;44.014;20.918;2023-11-19T02:12:19;10.60;;;4.93;;
79664;SDS011;69132;44.014;20.918;2023-11-19T02:14:45;8.07;;;4.38;;
79664;SDS011;69132;44.014;20.918;2023-11-19T02:17:30;7.43;;;4.32;;
79664;SDS011;69132;44.014;20.918;2023-11-19T02:20:03;7.55;;;5.00;;
79664;SDS011;69132;44.014;20.918;2023-11-19T02:22:34;20.38;;;5.00;;
79664;SDS011;69132;44.014;20.918;2023-11-19T02:25:00;7.97;;;4.60;;
79664;SDS011;69132;44.014;20.918;2023-11-19T02:27:31;9.33;;;4.67;;
79664;SDS011;69132;44.014;20.918;2023-11-19T02:29:58;9.35;;;4.57;;
79664;SDS011;69132;44.014;20.918;2023-11-19T02:32:27;7.80;;;4.85;;
79664;SDS011;69132;44.014;20.918;2023-11-19T02:34:56;8.48;;;4.75;;
79664;SDS011;69132;44.014;20.918;2023-11-19T02:37:22;7.97;;;4.88;;
79664;SDS011;69132;44.014;20.918;2023-11-19T02:39:48;7.50;;;4.43;;
79664;SDS011;69132;44.014;20.918;2023-11-19T02:42:14;6.93;;;4.00;;
79664;SDS011;69132;44.014;20.918;2023-11-19T02:44:43;7.82;;;4.85;;
79664;SDS011;69132;44.014;20.918;2023-11-19T02:47:10;10.52;;;5.38;;
79664;SDS011;69132;44.014;20.918;2023-11-19T02:49:36;8.95;;;4.47;;
79664;SDS011;69132;44.014;20.918;2023-11-19T02:52:04;9.70;;;4.80;;
79664;SDS011;69132;44.014;20.918;2023-11-19T02:54:35;7.38;;;4.55;;
79664;SDS011;69132;44.014;20.918;2023-11-19T02:57:02;7.75;;;4.60;;
79664;SDS011;69132;44.014;20.918;2023-11-19T02:59:29;7.38;;;4.97;;
79664;SDS011;69132;44.014;20.918;2023-11-19T03:02:04;7.43;;;4.88;;
79664;SDS011;69132;44.014;20.918;2023-11-19T03:04:32;9.93;;;5.18;;
79664;SDS011;69132;44.014;20.918;2023-11-19T03:06:58;9.05;;;4.80;;
79664;SDS011;69132;44.014;20.918;2023-11-19T03:09:25;8.38;;;5.00;;
79664;SDS011;69132;44.014;20.918;2023-11-19T03:11:51;6.30;;;4.22;;
79664;SDS011;69132;44.014;20.918;2023-11-19T03:14:20;5.53;;;4.00;;
79664;SDS011;69132;44.014;20.918;2023-11-19T03:16:47;7.22;;;4.55;;
79664;SDS011;69132;44.014;20.918;2023-11-19T03:19:14;7.75;;;5.22;;
79664;SDS011;69132;44.014;20.918;2023-11-19T03:21:40;7.47;;;4.57;;
79664;SDS011;69132;44.014;20.918;2023-11-19T03:24:06;8.60;;;4.85;;
79664;SDS011;69132;44.014;20.918;2023-11-19T03:26:33;6.88;;;4.80;;
79664;SDS011;69132;44.014;20.918;2023-11-19T03:28:59;6.35;;;4.20;;
79664;SDS011;69132;44.014;20.918;2023-11-19T03:31:26;5.75;;;3.88;;
79664;SDS011;69132;44.014;20.918;2023-11-19T03:33:52;5.82;;;4.10;;
79664;SDS011;69132;44.014;20.918;2023-11-19T03:36:19;7.82;;;4.28;;
79664;SDS011;69132;44.014;20.918;2023-11-19T03:38:45;6.53;;;4.13;;
79664;SDS011;69132;44.014;20.918;2023-11-19T03:41:12;8.25;;;4.75;;
79664;SDS011;69132;44.014;20.918;2023-11-19T03:43:39;6.88;;;4.68;;
79664;SDS011;69132;44.014;20.918;2023-11-19T03:46:23;8.40;;;4.65;;
79664;SDS011;69132;44.014;20.918;2023-11-19T03:48:49;7.72;;;4.82;;
79664;SDS011;69132;44.014;20.918;2023-11-19T03:51:19;6.00;;;4.30;;
79664;SDS011;69132;44.014;20.918;2023-11-19T03:53:45;5.53;;;4.38;;
79664;SDS011;69132;44.014;20.918;2023-11-19T03:56:12;5.65;;;3.97;;
79664;SDS011;69132;44.014;20.918;2023-11-19T03:58:41;7.50;;;4.60;;
79664;SDS011;69132;44.014;20.918;2023-11-19T04:01:11;6.57;;;3.97;;
79664;SDS011;69132;44.014;20.918;2023-11-19T04:03:40;5.78;;;4.38;;
79664;SDS011;69132;44.014;20.918;2023-11-19T04:06:06;6.43;;;4.07;;
79664;SDS011;69132;44.014;20.918;2023-11-19T04:08:32;5.82;;;3.95;;
79664;SDS011;69132;44.014;20.918;2023-11-19T04:10:59;6.82;;;4.20;;
79664;SDS011;69132;44.014;20.918;2023-11-19T04:13:26;6.55;;;3.95;;
79664;SDS011;69132;44.014;20.918;2023-11-19T04:15:52;7.32;;;4.20;;
79664;SDS011;69132;44.014;20.918;2023-11-19T04:18:18;5.18;;;4.10;;
79664;SDS011;69132;44.014;20.918;2023-11-19T04:20:44;6.65;;;4.07;;
79664;SDS011;69132;44.014;20.918;2023-11-19T04:23:11;8.73;;;4.82;;
79664;SDS011;69132;44.014;20.918;2023-11-19T04:25:37;8.52;;;4.40;;
79664;SDS011;69132;44.014;20.918;2023-11-19T04:28:03;6.85;;;4.30;;
79664;SDS011;69132;44.014;20.918;2023-11-19T04:30:30;8.00;;;4.47;;
79664;SDS011;69132;44.014;20.918;2023-11-19T04:32:57;8.45;;;4.65;;
79664;SDS011;69132;44.014;20.918;2023-11-19T04:35:23;7.60;;;4.57;;
79664;SDS011;69132;44.014;20.918;2023-11-19T04:37:51;8.70;;;6.40;;
79664;SDS011;69132;44.014;20.918;2023-11-19T04:40:17;8.40;;;5.43;;
79664;SDS011;69132;44.014;20.918;2023-11-19T04:42:43;5.43;;;3.63;;
79664;SDS011;69132;44.014;20.918;2023-11-19T04:45:10;7.03;;;4.10;;
79664;SDS011;69132;44.014;20.918;2023-11-19T04:47:36;4.47;;;3.63;;
79664;SDS011;69132;44.014;20.918;2023-11-19T04:50:03;5.53;;;3.75;;
79664;SDS011;69132;44.014;20.918;2023-11-19T04:52:29;4.53;;;3.63;;
79664;SDS011;69132;44.014;20.918;2023-11-19T04:54:55;7.00;;;4.20;;
79664;SDS011;69132;44.014;20.918;2023-11-19T04:57:21;5.63;;;3.33;;
79664;SDS011;69132;44.014;20.918;2023-11-19T04:59:47;4.53;;;3.45;;
79664;SDS011;69132;44.014;20.918;2023-11-19T05:02:13;7.22;;;4.30;;
79664;SDS011;69132;44.014;20.918;2023-11-19T05:04:43;5.47;;;3.40;;
79664;SDS011;69132;44.014;20.918;2023-11-19T05:07:11;7.13;;;4.00;;
79664;SDS011;69132;44.014;20.918;2023-11-19T05:09:37;5.95;;;3.50;;
79664;SDS011;69132;44.014;20.918;2023-11-19T05:12:03;5.57;;;3.30;;
79664;SDS011;69132;44.014;20.918;2023-11-19T05:14:30;6.63;;;3.63;;
79664;SDS011;69132;44.014;20.918;2023-11-19T05:16:56;6.32;;;4.50;;
79664;SDS011;69132;44.014;20.918;2023-11-19T05:19:22;7.07;;;3.90;;
79664;SDS011;69132;44.014;20.918;2023-11-19T05:21:48;7.63;;;4.30;;
79664;SDS011;69132;44.014;20.918;2023-11-19T05:26:44;8.75;;;5.68;;
79664;SDS011;69132;44.014;20.918;2023-11-19T05:29:10;7.82;;;5.70;;
79664;SDS011;69132;44.014;20.918;2023-11-19T05:31:37;7.45;;;5.05;;
79664;SDS011;69132;44.014;20.918;2023-11-19T05:34:03;9.13;;;4.85;;
79664;SDS011;69132;44.014;20.918;2023-11-19T05:36:29;8.40;;;4.68;;
79664;SDS011;69132;44.014;20.918;2023-11-19T05:38:55;10.25;;;4.45;;
79664;SDS011;69132;44.014;20.918;2023-11-19T05:41:21;9.02;;;5.50;;
79664;SDS011;69132;44.014;20.918;2023-11-19T05:43:47;8.70;;;5.15;;
79664;SDS011;69132;44.014;20.918;2023-11-19T05:46:13;6.90;;;4.70;;
79664;SDS011;69132;44.014;20.918;2023-11-19T05:48:39;8.65;;;5.43;;
79664;SDS011;69132;44.014;20.918;2023-11-19T05:51:06;12.05;;;6.35;;
79664;SDS011;69132;44.014;20.918;2023-11-19T05:53:33;16.40;;;8.65;;
79664;SDS011;69132;44.014;20.918;2023-11-19T05:55:59;18.77;;;10.10;;
79664;SDS011;69132;44.014;20.918;2023-11-19T05:58:29;15.60;;;9.52;;
79664;SDS011;69132;44.014;20.918;2023-11-19T06:00:57;18.85;;;10.25;;
79664;SDS011;69132;44.014;20.918;2023-11-19T06:03:26;20.23;;;9.97;;
79664;SDS011;69132;44.014;20.918;2023-11-19T06:05:53;23.10;;;12.00;;
79664;SDS011;69132;44.014;20.918;2023-11-19T06:08:24;21.67;;;10.73;;
79664;SDS011;69132;44.014;20.918;2023-11-19T06:10:52;17.92;;;9.60;;
79664;SDS011;69132;44.014;20.918;2023-11-19T06:13:18;24.85;;;12.52;;
79664;SDS011;69132;44.014;20.918;2023-11-19T06:15:45;21.50;;;10.93;;
79664;SDS011;69132;44.014;20.918;2023-11-19T06:18:11;17.10;;;10.80;;
79664;SDS011;69132;44.014;20.918;2023-11-19T06:20:37;17.15;;;10.85;;
79664;SDS011;69132;44.014;20.918;2023-11-19T06:23:03;21.67;;;11.82;;
79664;SDS011;69132;44.014;20.918;2023-11-19T06:25:29;22.98;;;11.35;;
79664;SDS011;69132;44.014;20.918;2023-11-19T06:27:55;22.73;;;10.90;;
79664;SDS011;69132;44.014;20.918;2023-11-19T06:30:22;19.65;;;12.10;;
79664;SDS011;69132;44.014;20.918;2023-11-19T06:32:48;21.33;;;11.35;;
79664;SDS011;69132;44.014;20.918;2023-11-19T06:35:15;17.05;;;9.98;;
79664;SDS011;69132;44.014;20.918;2023-11-19T06:37:41;15.60;;;9.90;;
79664;SDS011;69132;44.014;20.918;2023-11-19T06:40:07;16.05;;;9.77;;
79664;SDS011;69132;44.014;20.918;2023-11-19T06:42:35;19.27;;;10.73;;
79664;SDS011;69132;44.014;20.918;2023-11-19T06:45:03;15.95;;;9.40;;
79664;SDS011;69132;44.014;20.918;2023-11-19T06:47:29;19.13;;;10.00;;
79664;SDS011;69132;44.014;20.918;2023-11-19T06:49:55;16.88;;;9.70;;
79664;SDS011;69132;44.014;20.918;2023-11-19T06:52:25;26.65;;;13.65;;
79664;SDS011;69132;44.014;20.918;2023-11-19T06:54:51;18.38;;;10.68;;
79664;SDS011;69132;44.014;20.918;2023-11-19T06:57:17;23.65;;;12.35;;
79664;SDS011;69132;44.014;20.918;2023-11-19T06:59:43;21.20;;;11.70;;
79664;SDS011;69132;44.014;20.918;2023-11-19T07:02:09;23.90;;;11.02;;
79664;SDS011;69132;44.014;20.918;2023-11-19T07:04:36;18.48;;;9.75;;
79664;SDS011;69132;44.014;20.918;2023-11-19T07:07:02;15.88;;;9.25;;
79664;SDS011;69132;44.014;20.918;2023-11-19T07:09:28;18.58;;;8.23;;
79664;SDS011;69132;44.014;20.918;2023-11-19T07:11:55;11.50;;;6.68;;
79664;SDS011;69132;44.014;20.918;2023-11-19T07:14:21;10.68;;;5.85;;
79664;SDS011;69132;44.014;20.918;2023-11-19T07:16:48;7.97;;;5.32;;
79664;SDS011;69132;44.014;20.918;2023-11-19T07:19:16;8.98;;;5.43;;
79664;SDS011;69132;44.014;20.918;2023-11-19T07:21:43;9.52;;;5.35;;
79664;SDS011;69132;44.014;20.918;2023-11-19T07:24:10;8.30;;;4.88;;
79664;SDS011;69132;44.014;20.918;2023-11-19T07:26:42;10.27;;;5.20;;
79664;SDS011;69132;44.014;20.918;2023-11-19T07:29:09;6.50;;;4.30;;
79664;SDS011;69132;44.014;20.918;2023-11-19T07:31:35;10.18;;;4.90;;
79664;SDS011;69132;44.014;20.918;2023-11-19T07:34:02;7.45;;;4.88;;
79664;SDS011;69132;44.014;20.918;2023-11-19T07:36:28;7.38;;;4.28;;
79664;SDS011;69132;44.014;20.918;2023-11-19T07:38:55;6.03;;;4.07;;
79664;SDS011;69132;44.014;20.918;2023-11-19T07:41:22;10.38;;;4.65;;
79664;SDS011;69132;44.014;20.918;2023-11-19T07:43:50;7.20;;;4.05;;
79664;SDS011;69132;44.014;20.918;2023-11-19T07:46:18;8.15;;;4.45;;
79664;SDS011;69132;44.014;20.918;2023-11-19T07:48:47;8.15;;;4.20;;
79664;SDS011;69132;44.014;20.918;2023-11-19T07:51:13;5.93;;;3.47;;
79664;SDS011;69132;44.014;20.918;2023-11-19T07:53:40;7.65;;;4.68;;
79664;SDS011;69132;44.014;20.918;2023-11-19T07:56:07;5.32;;;3.22;;
79664;SDS011;69132;44.014;20.918;2023-11-19T07:58:33;6.95;;;4.13;;
79664;SDS011;69132;44.014;20.918;2023-11-19T08:00:59;5.22;;;3.70;;
79664;SDS011;69132;44.014;20.918;2023-11-19T08:03:25;7.20;;;3.70;;
79664;SDS011;69132;44.014;20.918;2023-11-19T08:05:51;9.50;;;3.17;;
79664;SDS011;69132;44.014;20.918;2023-11-19T08:08:17;5.90;;;3.17;;
79664;SDS011;69132;44.014;20.918;2023-11-19T08:10:43;4.07;;;3.05;;
79664;SDS011;69132;44.014;20.918;2023-11-19T08:13:11;3.83;;;2.90;;
79664;SDS011;69132;44.014;20.918;2023-11-19T08:15:37;5.70;;;3.67;;
79664;SDS011;69132;44.014;20.918;2023-11-19T08:18:03;6.07;;;3.45;;
79664;SDS011;69132;44.014;20.918;2023-11-19T08:20:33;5.95;;;3.55;;
79664;SDS011;69132;44.014;20.918;2023-11-19T08:22:59;5.75;;;3.10;;
79664;SDS011;69132;44.014;20.918;2023-11-19T08:25:27;4.40;;;2.90;;
79664;SDS011;69132;44.014;20.918;2023-11-19T08:27:53;5.95;;;3.80;;
79664;SDS011;69132;44.014;20.918;2023-11-19T08:30:19;4.93;;;3.38;;
79664;SDS011;69132;44.014;20.918;2023-11-19T08:32:45;5.50;;;3.63;;
79664;SDS011;69132;44.014;20.918;2023-11-19T08:35:12;6.72;;;3.60;;
79664;SDS011;69132;44.014;20.918;2023-11-19T08:37:39;6.38;;;3.45;;
79664;SDS011;69132;44.014;20.918;2023-11-19T08:40:06;4.88;;;3.70;;
79664;SDS011;69132;44.014;20.918;2023-11-19T08:42:32;5.10;;;3.70;;
79664;SDS011;69132;44.014;20.918;2023-11-19T08:44:58;4.75;;;3.40;;
79664;SDS011;69132;44.014;20.918;2023-11-19T08:47:24;4.78;;;3.08;;
79664;SDS011;69132;44.014;20.918;2023-11-19T08:49:51;4.85;;;3.25;;
79664;SDS011;69132;44.014;20.918;2023-11-19T08:52:20;5.40;;;3.63;;
79664;SDS011;69132;44.014;20.918;2023-11-19T08:54:46;3.78;;;3.10;;
79664;SDS011;69132;44.014;20.918;2023-11-19T08:57:12;4.72;;;3.00;;
79664;SDS011;69132;44.014;20.918;2023-11-19T08:59:38;4.05;;;2.72;;
79664;SDS011;69132;44.014;20.918;2023-11-19T09:02:05;5.30;;;3.25;;
79664;SDS011;69132;44.014;20.918;2023-11-19T09:04:32;5.82;;;3.80;;
79664;SDS011;69132;44.014;20.918;2023-11-19T09:06:58;4.57;;;2.97;;
79664;SDS011;69132;44.014;20.918;2023-11-19T09:09:24;4.95;;;3.72;;
79664;SDS011;69132;44.014;20.918;2023-11-19T09:11:50;5.35;;;2.67;;
79664;SDS011;69132;44.014;20.918;2023-11-19T09:14:16;7.43;;;3.45;;
79664;SDS011;69132;44.014;20.918;2023-11-19T09:16:43;10.75;;;4.10;;
79664;SDS011;69132;44.014;20.918;2023-11-19T09:19:09;3.90;;;2.47;;
79664;SDS011;69132;44.014;20.918;2023-11-19T09:21:35;5.43;;;3.85;;
79664;SDS011;69132;44.014;20.918;2023-11-19T09:24:04;4.43;;;2.67;;
79664;SDS011;69132;44.014;20.918;2023-11-19T09:26:30;6.53;;;3.08;;
79664;SDS011;69132;44.014;20.918;2023-11-19T09:28:56;3.08;;;2.30;;
79664;SDS011;69132;44.014;20.918;2023-11-19T09:31:22;4.47;;;2.70;;
79664;SDS011;69132;44.014;20.918;2023-11-19T09:33:49;4.07;;;3.53;;
79664;SDS011;69132;44.014;20.918;2023-11-19T09:36:15;3.45;;;2.88;;
79664;SDS011;69132;44.014;20.918;2023-11-19T09:38:42;3.75;;;2.90;;
79664;SDS011;69132;44.014;20.918;2023-11-19T09:41:09;4.00;;;2.40;;
79664;SDS011;69132;44.014;20.918;2023-11-19T09:43:37;6.90;;;2.72;;
79664;SDS011;69132;44.014;20.918;2023-11-19T09:46:05;4.18;;;3.00;;
79664;SDS011;69132;44.014;20.918;2023-11-19T09:48:32;16.38;;;5.35;;
79664;SDS011;69132;44.014;20.918;2023-11-19T09:50:59;6.05;;;2.92;;
79664;SDS011;69132;44.014;20.918;2023-11-19T09:53:27;4.47;;;3.25;;
79664;SDS011;69132;44.014;20.918;2023-11-19T09:55:53;5.45;;;2.42;;
79664;SDS011;69132;44.014;20.918;2023-11-19T09:58:21;5.07;;;2.85;;
79664;SDS011;69132;44.014;20.918;2023-11-19T10:00:47;8.63;;;3.67;;
79664;SDS011;69132;44.014;20.918;2023-11-19T10:03:13;4.10;;;3.58;;
79664;SDS011;69132;44.014;20.918;2023-11-19T10:05:41;3.72;;;2.95;;
79664;SDS011;69132;44.014;20.918;2023-11-19T10:08:07;5.00;;;3.67;;
79664;SDS011;69132;44.014;20.918;2023-11-19T10:10:33;8.13;;;4.10;;
79664;SDS011;69132;44.014;20.918;2023-11-19T10:13:00;3.13;;;2.83;;
79664;SDS011;69132;44.014;20.918;2023-11-19T10:15:26;3.10;;;2.30;;
79664;SDS011;69132;44.014;20.918;2023-11-19T10:17:55;3.70;;;2.92;;
79664;SDS011;69132;44.014;20.918;2023-11-19T10:20:22;5.65;;;3.97;;
79664;SDS011;69132;44.014;20.918;2023-11-19T10:22:52;8.55;;;5.13;;
79664;SDS011;69132;44.014;20.918;2023-11-19T10:25:25;4.10;;;3.05;;
79664;SDS011;69132;44.014;20.918;2023-11-19T10:27:52;5.85;;;3.47;;
79664;SDS011;69132;44.014;20.918;2023-11-19T10:30:20;5.35;;;3.63;;
79664;SDS011;69132;44.014;20.918;2023-11-19T10:33:02;6.15;;;3.38;;
79664;SDS011;69132;44.014;20.918;2023-11-19T10:35:29;4.00;;;3.47;;
79664;SDS011;69132;44.014;20.918;2023-11-19T10:37:55;6.93;;;3.35;;
79664;SDS011;69132;44.014;20.918;2023-11-19T10:40:21;6.50;;;3.53;;
79664;SDS011;69132;44.014;20.918;2023-11-19T10:42:47;4.18;;;3.10;;
79664;SDS011;69132;44.014;20.918;2023-11-19T10:45:22;5.28;;;3.65;;
79664;SDS011;69132;44.014;20.918;2023-11-19T10:47:50;6.85;;;3.30;;
79664;SDS011;69132;44.014;20.918;2023-11-19T10:50:17;5.55;;;3.40;;
79664;SDS011;69132;44.014;20.918;2023-11-19T10:52:45;8.88;;;3.75;;
79664;SDS011;69132;44.014;20.918;2023-11-19T10:55:11;6.55;;;3.85;;
79664;SDS011;69132;44.014;20.918;2023-11-19T10:57:40;6.13;;;3.83;;
79664;SDS011;69132;44.014;20.918;2023-11-19T11:00:09;7.65;;;3.97;;
79664;SDS011;69132;44.014;20.918;2023-11-19T11:02:38;7.75;;;3.63;;
79664;SDS011;69132;44.014;20.918;2023-11-19T11:05:11;4.93;;;3.65;;
79664;SDS011;69132;44.014;20.918;2023-11-19T11:07:38;4.78;;;4.05;;
79664;SDS011;69132;44.014;20.918;2023-11-19T11:10:05;4.93;;;3.70;;
79664;SDS011;69132;44.014;20.918;2023-11-19T11:12:35;4.35;;;3.38;;
79664;SDS011;69132;44.014;20.918;2023-11-19T11:15:05;4.60;;;3.15;;
79664;SDS011;69132;44.014;20.918;2023-11-19T11:17:31;3.17;;;2.63;;
79664;SDS011;69132;44.014;20.918;2023-11-19T11:19:59;5.47;;;2.55;;
79664;SDS011;69132;44.014;20.918;2023-11-19T11:22:25;3.97;;;3.00;;
79664;SDS011;69132;44.014;20.918;2023-11-19T11:24:59;6.88;;;4.25;;
79664;SDS011;69132;44.014;20.918;2023-11-19T11:37:46;4.30;;;3.70;;
79664;SDS011;69132;44.014;20.918;2023-11-19T11:40:13;5.13;;;3.67;;
79664;SDS011;69132;44.014;20.918;2023-11-19T11:42:41;5.95;;;4.07;;
79664;SDS011;69132;44.014;20.918;2023-11-19T11:45:08;5.88;;;4.03;;
79664;SDS011;69132;44.014;20.918;2023-11-19T11:50:17;7.07;;;4.60;;
79664;SDS011;69132;44.014;20.918;2023-11-19T11:55:26;6.93;;;3.90;;
79664;SDS011;69132;44.014;20.918;2023-11-19T11:57:52;6.22;;;4.82;;
79664;SDS011;69132;44.014;20.918;2023-11-19T12:00:52;7.18;;;4.75;;
79664;SDS011;69132;44.014;20.918;2023-11-19T12:03:11;5.82;;;3.85;;
79664;SDS011;69132;44.014;20.918;2023-11-19T12:05:43;9.60;;;7.13;;
79664;SDS011;69132;44.014;20.918;2023-11-19T12:08:10;10.85;;;7.30;;
79664;SDS011;69132;44.014;20.918;2023-11-19T12:10:44;7.70;;;5.95;;
79664;SDS011;69132;44.014;20.918;2023-11-19T12:13:13;5.13;;;4.15;;
79664;SDS011;69132;44.014;20.918;2023-11-19T12:18:34;5.32;;;4.13;;
79664;SDS011;69132;44.014;20.918;2023-11-19T12:21:00;4.20;;;3.15;;
79664;SDS011;69132;44.014;20.918;2023-11-19T12:23:30;4.43;;;3.67;;
79664;SDS011;69132;44.014;20.918;2023-11-19T12:25:58;5.15;;;4.20;;
79664;SDS011;69132;44.014;20.918;2023-11-19T12:28:24;8.57;;;4.55;;
79664;SDS011;69132;44.014;20.918;2023-11-19T12:30:53;3.88;;;3.40;;
79664;SDS011;69132;44.014;20.918;2023-11-19T12:33:19;3.78;;;3.15;;
79664;SDS011;69132;44.014;20.918;2023-11-19T12:35:47;4.10;;;3.33;;
79664;SDS011;69132;44.014;20.918;2023-11-19T12:38:24;3.53;;;2.60;;
79664;SDS011;69132;44.014;20.918;2023-11-19T12:41:03;5.22;;;3.45;;
79664;SDS011;69132;44.014;20.918;2023-11-19T12:43:30;4.68;;;3.30;;
79664;SDS011;69132;44.014;20.918;2023-11-19T12:45:57;5.65;;;3.60;;
79664;SDS011;69132;44.014;20.918;2023-11-19T12:48:23;4.72;;;3.67;;
79664;SDS011;69132;44.014;20.918;2023-11-19T12:50:53;3.78;;;3.20;;
79664;SDS011;69132;44.014;20.918;2023-11-19T12:53:19;4.57;;;3.35;;
79664;SDS011;69132;44.014;20.918;2023-11-19T12:55:46;4.93;;;3.38;;
79664;SDS011;69132;44.014;20.918;2023-11-19T12:58:34;4.45;;;3.20;;
79664;SDS011;69132;44.014;20.918;2023-11-19T13:03:33;7.75;;;3.30;;
79664;SDS011;69132;44.014;20.918;2023-11-19T13:06:04;4.43;;;3.17;;
79664;SDS011;69132;44.014;20.918;2023-11-19T13:08:37;4.75;;;3.22;;
79664;SDS011;69132;44.014;20.918;2023-11-19T13:11:04;9.43;;;4.47;;
79664;SDS011;69132;44.014;20.918;2023-11-19T13:13:31;7.28;;;4.43;;
79664;SDS011;69132;44.014;20.918;2023-11-19T13:16:04;5.63;;;3.80;;
79664;SDS011;69132;44.014;20.918;2023-11-19T13:18:35;8.45;;;4.90;;
79664;SDS011;69132;44.014;20.918;2023-11-19T13:21:01;7.95;;;4.40;;
79664;SDS011;69132;44.014;20.918;2023-11-19T13:23:27;7.05;;;3.45;;
79664;SDS011;69132;44.014;20.918;2023-11-19T13:25:54;5.15;;;3.42;;
79664;SDS011;69132;44.014;20.918;2023-11-19T13:28:20;7.53;;;3.70;;
79664;SDS011;69132;44.014;20.918;2023-11-19T13:30:46;5.80;;;3.40;;
79664;SDS011;69132;44.014;20.918;2023-11-19T13:33:12;6.07;;;3.63;;
79664;SDS011;69132;44.014;20.918;2023-11-19T13:35:39;5.10;;;3.60;;
79664;SDS011;69132;44.014;20.918;2023-11-19T13:38:08;6.28;;;3.85;;
79664;SDS011;69132;44.014;20.918;2023-11-19T13:40:36;5.72;;;3.72;;
79664;SDS011;69132;44.014;20.918;2023-11-19T13:43:02;7.03;;;4.13;;
79664;SDS011;69132;44.014;20.918;2023-11-19T13:45:28;6.75;;;4.07;;
79664;SDS011;69132;44.014;20.918;2023-11-19T13:47:54;8.02;;;5.15;;
79664;SDS011;69132;44.014;20.918;2023-11-19T13:50:20;6.28;;;3.47;;
79664;SDS011;69132;44.014;20.918;2023-11-19T13:52:47;7.50;;;4.32;;
79664;SDS011;69132;44.014;20.918;2023-11-19T13:55:17;5.55;;;3.53;;
79664;SDS011;69132;44.014;20.918;2023-11-19T13:57:43;5.65;;;4.30;;
79664;SDS011;69132;44.014;20.918;2023-11-19T14:00:11;6.20;;;4.78;;
79664;SDS011;69132;44.014;20.918;2023-11-19T14:02:45;6.82;;;4.30;;
79664;SDS011;69132;44.014;20.918;2023-11-19T14:05:14;10.60;;;5.00;;
79664;SDS011;69132;44.014;20.918;2023-11-19T14:07:44;7.13;;;4.20;;
79664;SDS011;69132;44.014;20.918;2023-11-19T14:10:17;10.05;;;4.75;;
79664;SDS011;69132;44.014;20.918;2023-11-19T14:12:44;15.38;;;6.93;;
79664;SDS011;69132;44.014;20.918;2023-11-19T14:15:10;14.25;;;8.23;;
79664;SDS011;69132;44.014;20.918;2023-11-19T14:17:42;10.25;;;5.75;;
79664;SDS011;69132;44.014;20.918;2023-11-19T14:20:09;9.73;;;4.97;;
79664;SDS011;69132;44.014;20.918;2023-11-19T14:22:39;6.57;;;3.80;;
79664;SDS011;69132;44.014;20.918;2023-11-19T14:25:11;5.35;;;3.75;;
79664;SDS011;69132;44.014;20.918;2023-11-19T14:27:40;7.63;;;4.32;;
79664;SDS011;69132;44.014;20.918;2023-11-19T14:30:09;7.05;;;4.18;;
79664;SDS011;69132;44.014;20.918;2023-11-19T14:35:11;8.35;;;4.97;;
79664;SDS011;69132;44.014;20.918;2023-11-19T14:40:30;11.52;;;5.55;;
79664;SDS011;69132;44.014;20.918;2023-11-19T14:42:57;9.35;;;6.15;;
79664;SDS011;69132;44.014;20.918;2023-11-19T14:45:24;10.27;;;5.90;;
79664;SDS011;69132;44.014;20.918;2023-11-19T14:47:50;9.63;;;5.25;;
79664;SDS011;69132;44.014;20.918;2023-11-19T14:50:18;11.15;;;5.72;;
79664;SDS011;69132;44.014;20.918;2023-11-19T14:52:44;9.82;;;6.35;;
79664;SDS011;69132;44.014;20.918;2023-11-19T14:55:10;9.10;;;5.45;;
79664;SDS011;69132;44.014;20.918;2023-11-19T14:57:38;9.82;;;5.50;;
79664;SDS011;69132;44.014;20.918;2023-11-19T15:00:04;11.52;;;5.70;;
79664;SDS011;69132;44.014;20.918;2023-11-19T15:02:38;11.88;;;6.10;;